Soldotna Airport Soldotna US
ICAO: PASX
IATA:
Category: Medium
Scheduled Services:

Elevation: 113 ft
TransAlt. 18000 ft.

Airport Communications:
AWOS 3:135.45
ANCHORAGE CNTR:125.7
CTAF:122.5
KENAI RDO:122.35
TWEB:117.6

PASX Zoom In..

If you have problems with the map follow the link
https://www.worldairports.se/pages/airport.php?
ICAO=PASX

Runways:

(A) RW 07 length 5000 ft width 132 ft
---- / hdg 71

(B) RW 25 length 5000 ft width 132 ft
---- / hdg 251

Location; PASX
Day. 08 / Time. 17.56 Zulu
* Altimeter: 29.74
* Temperature: -02° c. -28.4°f.
* Wind from: 050° Speed 04 kn.
Dewpoint: -03° c.
Visibility: 10 Statute Miles.
Clouds: Clear (automated report).

PASX 081756Z AUTO 05004KT 10SM CLR M02/M03 A2974 RMK AO2 SLP081 T10171028 10039 21017 51037 FZRANO


Wind From 050°
Speed 04 kn.

 
 
jpsmedia worldairports.se 2019   terms of use